.
WxDataArchive / Data Records for 2010-02-12
2010-02-11 February 2010 2010-02-13

Data Records for Friday, 12 February 2010

Time	Temp	Chill	HIndex	Humid	Dewpt	 Wind 	HiWind	WindDir	Rain 	Barom 
-----	----	-----	------	-----	-----	------	------	-------	-----	----- 
00:00	22.9	22.9	22.9	74	15.9	1	3	248	0.00	30.101 
00:05	22.9	22.9	22.9	74	15.9	1	3	248	0.00	30.101 
00:10	22.9	22.9	22.9	77	16.8	1	2	248	0.00	30.101 
00:15	22.7	22.7	22.7	74	15.7	0	2	248	0.00	30.098 
00:20	22.7	22.7	22.7	74	15.7	1	3	248	0.00	30.098 
00:25	22.5	22.5	22.5	74	15.5	0	2	248	0.00	30.098 
00:30	22.4	22.4	22.4	75	15.7	0	1	248	0.00	30.092 
00:35	22.4	22.4	22.4	75	15.7	0	1	248	0.00	30.092 
00:40	22.4	22.4	22.4	75	15.7	0	1	248	0.00	30.092 
00:45	22.4	22.4	22.4	75	15.7	0	2	248	0.00	30.087 
00:50	22.4	22.4	22.4	75	15.7	0	2	248	0.00	30.087 
00:55	22.2	22.2	22.2	75	15.5	0	2	248	0.00	30.087 
01:00	22.2	22.2	22.2	76	15.8	0	2	248	0.00	30.089 
01:05	22.2	22.2	22.2	76	15.8	0	1	248	0.00	30.089 
01:10	22.2	22.2	22.2	76	15.8	1	3	248	0.00	30.089 
01:15	22.1	22.1	22.1	76	15.7	1	2	248	0.00	30.083 
01:20	22.1	22.1	22.1	76	15.7	0	2	248	0.00	30.083 
01:25	22.1	22.1	22.1	76	15.7	0	1	248	0.00	30.083 
01:30	22.1	22.1	22.1	76	15.7	0	1	248	0.00	30.072 
01:35	21.9	21.9	21.9	76	15.5	0	2	248	0.00	30.072 
01:40	21.9	21.9	21.9	76	15.5	0	1	248	0.00	30.072 
01:45	21.9	21.9	21.9	77	15.8	0	2	248	0.00	30.071 
01:50	21.9	21.9	21.9	77	15.8	0	2	248	0.00	30.071 
01:55	21.9	21.9	21.9	77	15.8	0	1	248	0.00	30.071 
02:00	21.9	21.9	21.9	77	15.8	0	1	248	0.00	30.068 
02:05	21.9	21.9	21.9	77	15.8	0	2	248	0.00	30.068 
02:10	21.9	21.9	21.9	77	15.8	0	2	248	0.00	30.068 
02:15	21.9	21.9	21.9	77	15.8	0	2	248	0.00	30.067 
02:20	21.9	21.9	21.9	77	15.8	0	1	248	0.00	30.067 
02:25	21.9	21.9	21.9	77	15.8	0	2	248	0.00	30.067 
02:30	21.8	21.8	21.8	77	15.7	0	1	248	0.00	30.069 
02:35	21.9	21.9	21.9	77	15.8	0	2	248	0.00	30.069 
02:40	21.9	21.9	21.9	77	15.8	0	1	248	0.00	30.069 
02:45	21.9	21.9	21.9	77	15.8	0	2	248	0.00	30.074 
02:50	22.1	22.1	22.1	78	16.3	0	2	248	0.00	30.074 
02:55	22.1	22.1	22.1	77	16.0	1	3	248	0.00	30.074 
03:00	22.2	22.2	22.2	77	16.1	1	3	248	0.00	30.080 
03:05	22.2	22.2	22.2	77	16.1	0	2	248	0.00	30.080 
03:10	22.2	22.2	22.2	77	16.1	1	3	248	0.00	30.080 
03:15	22.2	22.2	22.2	77	16.1	0	3	248	0.00	30.082 
03:20	22.2	22.2	22.2	77	16.1	0	2	248	0.00	30.082 
03:25	22.2	22.2	22.2	77	16.1	0	3	248	0.00	30.082 
03:30	22.2	22.2	22.2	77	16.1	0	2	248	0.00	30.081 
03:35	22.1	22.1	22.1	77	16.0	1	2	248	0.00	30.081 
03:40	21.9	21.9	21.9	77	15.8	0	2	248	0.00	30.081 
03:45	21.8	21.8	21.8	77	15.7	1	3	248	0.00	30.082 
03:50	21.6	21.6	21.6	77	15.5	0	3	248	0.00	30.082 
03:55	21.4	21.4	21.4	77	15.3	0	3	248	0.00	30.082 
04:00	21.1	21.1	21.1	77	15.0	1	4	248	0.00	30.085 
04:05	21.0	21.0	21.0	77	14.9	1	2	248	0.00	30.085 
04:10	20.8	20.8	20.8	77	14.7	0	4	225	0.00	30.085 
04:15	20.8	20.8	20.8	77	14.7	1	3	248	0.00	30.084 
04:20	20.8	20.8	20.8	77	14.7	1	2	248	0.00	30.084 
04:25	20.8	20.8	20.8	77	14.7	1	3	248	0.00	30.084 
04:30	20.8	20.8	20.8	77	14.7	1	3	248	0.00	30.086 
04:35	20.8	20.8	20.8	77	14.7	1	3	270	0.00	30.086 
04:40	20.8	20.8	20.8	77	14.7	0	2	270	0.00	30.086 
04:45	20.8	20.8	20.8	77	14.7	1	3	270	0.00	30.089 
04:50	20.8	20.8	20.8	77	14.7	0	2	270	0.00	30.089 
04:55	20.8	20.8	20.8	77	14.7	0	2	270	0.00	30.089 
05:00	20.8	20.8	20.8	77	14.7	1	2	270	0.00	30.097 
05:05	20.8	20.8	20.8	77	14.7	0	2	248	0.00	30.097 
05:10	20.8	20.8	20.8	77	14.7	0	1	248	0.00	30.097 
05:15	20.8	20.8	20.8	78	15.0	0	1	248	0.00	30.100 
05:20	20.8	20.8	20.8	78	15.0	0	1	248	0.00	30.100 
05:25	20.8	20.8	20.8	78	15.0	0	2	248	0.00	30.100 
05:30	20.8	20.8	20.8	78	15.0	1	4	270	0.00	30.102 
05:35	20.8	20.8	20.8	78	15.0	1	3	248	0.00	30.102 
05:40	20.6	20.6	20.6	77	14.6	1	3	248	0.00	30.102 
05:45	20.6	20.6	20.6	77	14.6	1	2	248	0.00	30.103 
05:50	20.5	20.5	20.5	77	14.5	1	3	248	0.00	30.103 
05:55	20.3	20.3	20.3	77	14.3	1	5	270	0.00	30.103 
06:00	20.3	20.3	20.3	78	14.6	1	2	248	0.00	30.100 
06:05	20.3	20.3	20.3	78	14.6	1	3	248	0.00	30.100 
06:10	20.2	20.2	20.2	78	14.5	0	1	248	0.00	30.100 
06:15	20.0	20.0	20.0	78	14.3	1	3	248	0.00	30.099 
06:20	19.9	19.9	19.9	78	14.2	1	2	248	0.00	30.099 
06:25	19.7	19.7	19.7	78	14.0	1	4	248	0.00	30.099 
06:30	19.5	19.5	19.5	78	13.8	2	4	248	0.00	30.094 
06:35	19.5	19.5	19.5	79	14.1	0	2	248	0.00	30.094 
06:40	19.5	19.5	19.5	79	14.1	0	1	248	0.00	30.094 
06:45	19.5	19.5	19.5	79	14.1	0	1	248	0.00	30.084 
06:50	19.5	19.5	19.5	80	14.4	0	1	248	0.00	30.084 
06:55	19.5	19.5	19.5	80	14.4	0	1	248	0.00	30.084 
07:00	19.7	19.7	19.7	81	14.8	0	2	248	0.00	30.072 
07:05	19.7	19.7	19.7	81	14.8	1	2	338	0.00	30.072 
07:10	19.7	19.7	19.7	80	14.6	1	2	338	0.00	30.072 
07:15	19.7	19.7	19.7	81	14.8	0	1	315	0.00	30.074 
07:20	19.7	19.7	19.7	80	14.6	0	1	315	0.00	30.074 
07:25	19.5	19.5	19.5	80	14.4	0	1	315	0.00	30.074 
07:30	19.5	19.5	19.5	81	14.6	0	2	315	0.00	30.074 
07:35	19.5	19.5	19.5	81	14.6	0	1	315	0.00	30.074 
07:40	19.5	19.5	19.5	81	14.6	0	0	---	0.00	30.074 
07:45	19.5	19.5	19.5	81	14.6	0	1	315	0.00	30.073 
07:50	19.5	19.5	19.5	81	14.6	0	1	315	0.00	30.073 
07:55	19.5	19.5	19.5	81	14.6	0	1	315	0.00	30.073 
08:00	19.5	19.5	19.5	80	14.4	0	1	315	0.00	30.078 
08:05	19.5	19.5	19.5	81	14.6	0	1	315	0.00	30.078 
08:10	19.5	19.5	19.5	80	14.4	0	2	315	0.00	30.078 
08:15	19.5	19.5	19.5	80	14.4	0	1	315	0.00	30.075 
08:20	19.7	19.7	19.7	80	14.6	0	3	338	0.00	30.075 
08:25	19.7	19.7	19.7	80	14.6	0	1	338	0.00	30.075 
08:30	19.9	19.9	19.9	80	14.7	0	1	338	0.00	30.086 
08:35	19.9	19.9	19.9	80	14.7	0	1	338	0.00	30.086 
08:40	20.2	20.2	20.2	80	15.0	0	1	338	0.00	30.086 
08:45	20.3	20.3	20.3	80	15.1	0	1	338	0.00	30.090 
08:50	20.5	20.5	20.5	80	15.3	0	1	338	0.00	30.090 
08:55	20.6	20.6	20.6	79	15.1	0	1	338	0.00	30.090 
09:00	20.8	20.8	20.8	79	15.3	0	1	338	0.00	30.095 
09:05	21.0	21.0	21.0	78	15.2	0	2	248	0.00	30.095 
09:10	21.1	21.1	21.1	78	15.3	0	2	248	0.00	30.095 
09:15	21.3	21.3	21.3	77	15.2	1	2	248	0.00	30.105 
09:20	21.3	21.3	21.3	77	15.2	0	3	248	0.00	30.105 
09:25	21.4	21.4	21.4	77	15.3	0	1	248	0.00	30.105 
09:30	21.6	21.6	21.6	76	15.2	0	2	248	0.00	30.100 
09:35	21.8	21.8	21.8	75	15.1	0	2	248	0.00	30.100 
09:40	21.8	21.8	21.8	75	15.1	0	2	248	0.00	30.100 
09:45	21.9	21.9	21.9	75	15.2	0	1	248	0.00	30.105 
09:50	22.2	22.2	22.2	75	15.5	0	3	248	0.00	30.105 
09:55	22.5	22.5	22.5	74	15.5	0	3	248	0.00	30.105 
10:00	22.7	22.7	22.7	73	15.4	1	3	248	0.00	30.103 
10:05	22.9	22.9	22.9	73	15.6	1	3	248	0.00	30.103 
10:10	23.0	23.0	23.0	73	15.7	1	3	248	0.00	30.103 
10:15	23.2	23.2	23.2	72	15.5	1	4	225	0.00	30.103 
10:20	23.5	23.5	23.5	72	15.8	1	3	248	0.00	30.103 
10:25	23.6	23.6	23.6	71	15.6	1	3	248	0.00	30.103 
10:30	23.6	23.6	23.6	71	15.6	0	1	248	0.00	30.101 
10:35	23.8	23.8	23.8	70	15.5	0	3	248	0.00	30.101 
10:40	24.1	24.1	24.1	70	15.8	1	3	248	0.00	30.101 
10:45	24.4	24.4	24.4	69	15.7	0	2	248	0.00	30.090 
10:50	24.7	24.7	24.7	69	16.0	1	3	248	0.00	30.090 
10:55	25.0	25.0	25.0	68	16.0	1	3	248	0.00	30.090 
11:00	25.4	25.4	25.4	67	16.0	1	2	248	0.00	30.082 
11:05	25.4	25.4	25.4	66	15.7	1	3	248	0.00	30.082 
11:10	25.7	25.7	25.7	67	16.3	1	3	292	0.00	30.082 
11:15	25.7	25.7	25.7	65	15.6	1	4	315	0.00	30.071 
11:20	25.6	25.6	25.6	65	15.5	1	3	338	0.00	30.071 
11:25	25.6	25.6	25.6	65	15.5	1	4	338	0.00	30.071 
11:30	25.6	25.6	25.6	65	15.5	1	4	248	0.00	30.064 
11:35	25.8	25.8	25.8	65	15.7	1	3	248	0.00	30.064 
11:40	26.4	26.4	26.4	65	16.3	1	3	248	0.00	30.064 
11:45	26.9	26.9	26.9	64	16.4	1	3	248	0.00	30.055 
11:50	27.3	27.3	27.3	63	16.4	2	3	248	0.00	30.055 
11:55	27.6	27.6	27.6	62	16.3	1	3	248	0.00	30.055 
12:00	28.1	28.1	28.1	61	16.4	1	3	292	0.00	30.053 
12:05	28.4	28.4	28.4	61	16.7	1	3	292	0.00	30.053 
12:10	28.4	28.4	28.4	60	16.3	1	2	292	0.00	30.053 
12:15	28.7	28.7	28.7	60	16.6	1	3	270	0.00	30.050 
12:20	29.0	29.0	29.0	60	16.9	1	3	270	0.00	30.050 
12:25	29.0	29.0	29.0	58	16.1	1	4	338	0.00	30.050 
12:30	29.1	29.1	29.1	59	16.6	0	2	315	0.00	30.039 
12:35	29.4	29.4	29.4	58	16.5	0	2	315	0.00	30.039 
12:40	29.5	29.5	29.5	58	16.6	1	3	315	0.00	30.039 
12:45	29.7	29.7	29.7	58	16.8	1	5	292	0.00	30.032 
12:50	29.5	29.5	29.5	57	16.2	1	3	292	0.00	30.032 
12:55	29.5	29.5	29.5	57	16.2	1	3	292	0.00	30.032 
13:00	29.4	29.4	29.4	57	16.1	1	3	315	0.00	30.025 
13:05	29.5	29.5	29.5	57	16.2	0	2	315	0.00	30.025 
13:10	29.8	29.8	29.8	56	16.0	2	4	338	0.01	30.025 
13:15	29.7	29.7	29.7	57	16.4	1	3	338	0.00	30.019 
13:20	29.3	29.3	29.3	57	16.0	1	4	338	0.00	30.019 
13:25	29.3	29.3	29.3	58	16.4	1	4	315	0.00	30.019 
13:30	29.1	29.1	29.1	58	16.2	1	3	292	0.00	30.018 
13:35	29.0	29.0	29.0	58	16.1	1	3	338	0.00	30.018 
13:40	29.0	29.0	29.0	58	16.1	0	3	0	0.00	30.018 
13:45	29.0	29.0	29.0	58	16.1	1	3	315	0.00	30.011 
13:50	29.0	29.0	29.0	59	16.5	1	3	338	0.00	30.011 
13:55	29.1	29.1	29.1	58	16.2	1	4	248	0.00	30.011 
14:00	29.0	29.0	29.0	58	16.1	1	3	248	0.00	30.007 
14:05	28.8	28.8	28.8	58	15.9	1	4	248	0.00	30.007 
14:10	28.7	28.7	28.7	58	15.8	1	3	0	0.00	30.007 
14:15	28.7	28.7	28.7	58	15.8	0	2	0	0.00	30.005 
14:20	28.7	28.7	28.7	58	15.8	0	2	0	0.00	30.005 
14:25	28.7	28.7	28.7	58	15.8	0	2	292	0.00	30.005 
14:30	28.7	28.7	28.7	58	15.8	1	2	315	0.00	30.002 
14:35	28.5	28.5	28.5	58	15.6	1	3	315	0.00	30.002 
14:40	28.7	28.7	28.7	58	15.8	0	2	315	0.00	30.002 
14:45	28.7	28.7	28.7	58	15.8	0	2	315	0.00	29.996 
14:50	28.7	28.7	28.7	58	15.8	0	3	315	0.00	29.996 
14:55	28.5	28.5	28.5	58	15.6	0	2	315	0.00	29.996 
15:00	28.5	28.5	28.5	58	15.6	0	2	315	0.00	30.000 
15:05	28.5	28.5	28.5	58	15.6	0	1	315	0.00	30.000 
15:10	28.5	28.5	28.5	58	15.6	0	1	315	0.00	30.000 
15:15	28.5	28.5	28.5	58	15.6	0	2	315	0.00	29.999 
15:20	28.5	28.5	28.5	58	15.6	0	2	315	0.00	29.999 
15:25	28.4	28.4	28.4	59	15.9	0	1	315	0.00	29.999 
15:30	28.5	28.5	28.5	60	16.4	0	2	315	0.00	29.999 
15:35	28.5	28.5	28.5	59	16.0	0	2	315	0.00	29.999 
15:40	28.5	28.5	28.5	59	16.0	0	2	315	0.00	29.999 
15:45	28.4	28.4	28.4	58	15.5	0	2	315	0.00	30.001 
15:50	28.4	28.4	28.4	60	16.3	0	2	315	0.00	30.001 
15:55	28.4	28.4	28.4	61	16.7	0	2	315	0.00	30.001 
16:00	28.2	28.2	28.2	61	16.5	0	2	315	0.00	29.997 
16:05	28.2	28.2	28.2	62	16.9	0	1	315	0.00	29.997 
16:10	28.1	28.1	28.1	63	17.2	0	2	315	0.00	29.997 
16:15	27.9	27.9	27.9	62	16.6	0	1	315	0.00	29.996 
16:20	27.8	27.8	27.8	63	16.9	1	2	315	0.00	29.996 
16:25	27.6	27.6	27.6	64	17.0	1	3	315	0.00	29.996 
16:30	27.5	27.5	27.5	65	17.3	1	3	315	0.00	29.997 
16:35	27.2	27.2	27.2	65	17.0	1	3	292	0.00	29.997 
16:40	27.0	27.0	27.0	65	16.8	1	3	292	0.00	29.997 
16:45	27.0	27.0	27.0	66	17.2	1	3	248	0.00	29.999 
16:50	26.9	26.9	26.9	66	17.1	1	2	248	0.00	29.999 
16:55	26.7	26.7	26.7	66	16.9	1	3	248	0.00	29.999 
17:00	26.6	26.6	26.6	67	17.1	1	2	248	0.00	30.000 
17:05	26.4	26.4	26.4	67	17.0	1	3	248	0.00	30.000 
17:10	26.4	26.4	26.4	68	17.3	1	2	248	0.00	30.000 
17:15	26.3	26.3	26.3	68	17.2	1	3	270	0.00	30.001 
17:20	26.3	26.3	26.3	68	17.2	1	2	248	0.00	30.001 
17:25	26.1	26.1	26.1	69	17.3	0	2	248	0.00	30.001 
17:30	26.1	26.1	26.1	69	17.3	1	2	248	0.00	29.999 
17:35	26.0	26.0	26.0	69	17.2	1	2	248	0.00	29.999 
17:40	25.8	25.8	25.8	70	17.4	0	2	248	0.00	29.999 
17:45	25.8	25.8	25.8	70	17.4	0	2	248	0.00	29.999 
17:50	25.7	25.7	25.7	70	17.3	1	3	248	0.00	29.999 
17:55	25.7	25.7	25.7	70	17.3	1	3	248	0.00	29.999 
18:00	25.6	25.6	25.6	70	17.2	0	2	248	0.00	29.998 
18:05	25.6	25.6	25.6	70	17.2	1	2	248	0.00	29.998 
18:10	25.6	25.6	25.6	70	17.2	0	2	248	0.00	29.998 
18:15	25.4	25.4	25.4	70	17.0	1	2	248	0.00	30.003 
18:20	25.4	25.4	25.4	70	17.0	0	2	248	0.00	30.003 
18:25	25.3	25.3	25.3	70	16.9	0	1	248	0.00	30.003 
18:30	25.3	25.3	25.3	70	16.9	0	1	248	0.00	30.004 
18:35	25.1	25.1	25.1	69	16.4	1	2	248	0.00	30.004 
18:40	25.1	25.1	25.1	69	16.4	0	2	248	0.00	30.004 
18:45	25.1	25.1	25.1	69	16.4	0	2	248	0.00	30.001 
18:50	25.0	25.0	25.0	69	16.3	1	3	248	0.00	30.001 
18:55	25.0	25.0	25.0	69	16.3	1	3	270	0.00	30.001 
19:00	25.0	25.0	25.0	68	16.0	1	2	270	0.00	29.998 
19:05	24.8	24.8	24.8	68	15.8	1	5	270	0.00	29.998 
19:10	24.8	24.8	24.8	68	15.8	1	3	248	0.00	29.998 
19:15	24.7	24.7	24.7	68	15.7	1	3	248	0.00	29.996 
19:20	24.7	24.7	24.7	69	16.0	1	3	248	0.00	29.996 
19:25	24.5	24.5	24.5	69	15.8	1	2	248	0.00	29.996 
19:30	24.5	24.5	24.5	69	15.8	1	2	248	0.00	29.995 
19:35	24.5	24.5	24.5	68	15.5	1	3	248	0.00	29.995 
19:40	24.5	24.5	24.5	68	15.5	1	3	248	0.00	29.995 
19:45	24.5	24.5	24.5	68	15.5	1	2	248	0.00	29.994 
19:50	24.4	24.4	24.4	69	15.7	0	1	248	0.00	29.994 
19:55	24.4	24.4	24.4	69	15.7	1	3	248	0.00	29.994 
20:00	24.4	24.4	24.4	69	15.7	1	3	270	0.00	29.996 
20:05	24.4	24.4	24.4	69	15.7	1	2	270	0.00	29.996 
20:10	24.4	24.4	24.4	69	15.7	0	1	270	0.00	29.996 
20:15	24.2	24.2	24.2	69	15.5	1	3	248	0.00	29.995 
20:20	24.2	24.2	24.2	69	15.5	1	2	248	0.00	29.995 
20:25	24.2	24.2	24.2	70	15.9	1	4	248	0.00	29.995 
20:30	24.1	24.1	24.1	70	15.8	0	2	248	0.00	29.991 
20:35	24.1	24.1	24.1	71	16.1	0	2	248	0.00	29.991 
20:40	24.1	24.1	24.1	71	16.1	0	2	248	0.00	29.991 
20:45	24.1	24.1	24.1	71	16.1	1	2	248	0.00	29.992 
20:50	24.1	24.1	24.1	71	16.1	0	2	248	0.00	29.992 
20:55	24.1	24.1	24.1	71	16.1	0	2	248	0.00	29.992 
21:00	24.1	24.1	24.1	71	16.1	0	1	248	0.00	29.992 
21:05	24.1	24.1	24.1	71	16.1	0	2	248	0.00	29.992 
21:10	24.1	24.1	24.1	71	16.1	1	2	248	0.00	29.992 
21:15	24.1	24.1	24.1	71	16.1	0	2	248	0.00	29.990 
21:20	24.1	24.1	24.1	71	16.1	1	4	248	0.00	29.990 
21:25	23.9	23.9	23.9	70	15.6	1	3	248	0.00	29.990 
21:30	23.9	23.9	23.9	71	15.9	1	2	248	0.00	29.992 
21:35	23.9	23.9	23.9	71	15.9	0	1	248	0.00	29.992 
21:40	23.9	23.9	23.9	71	15.9	0	2	248	0.00	29.992 
21:45	23.9	23.9	23.9	71	15.9	0	3	248	0.00	29.989 
21:50	23.9	23.9	23.9	71	15.9	0	1	248	0.00	29.989 
21:55	23.8	23.8	23.8	71	15.8	0	1	248	0.00	29.989 
22:00	23.8	23.8	23.8	71	15.8	0	2	248	0.00	29.987 
22:05	23.8	23.8	23.8	71	15.8	0	2	248	0.00	29.987 
22:10	23.6	23.6	23.6	71	15.6	0	2	248	0.00	29.987 
22:15	23.6	23.6	23.6	71	15.6	1	2	248	0.00	29.981 
22:20	23.6	23.6	23.6	70	15.3	1	3	248	0.00	29.981 
22:25	23.6	23.6	23.6	71	15.6	0	2	248	0.00	29.981 
22:30	23.5	23.5	23.5	71	15.5	0	2	248	0.00	29.978 
22:35	23.5	23.5	23.5	71	15.5	0	3	248	0.00	29.978 
22:40	23.5	23.5	23.5	71	15.5	0	2	248	0.00	29.978 
22:45	23.3	23.3	23.3	70	15.0	1	2	248	0.00	29.977 
22:50	23.3	23.3	23.3	70	15.0	1	2	248	0.00	29.977 
22:55	23.3	23.3	23.3	69	14.7	0	2	248	0.00	29.977 
23:00	23.2	23.2	23.2	69	14.6	1	2	248	0.00	29.975 
23:05	23.2	23.2	23.2	69	14.6	1	2	248	0.00	29.975 
23:10	23.0	23.0	23.0	69	14.4	1	2	248	0.00	29.975 
23:15	23.0	23.0	23.0	69	14.4	0	2	248	0.00	29.969 
23:20	22.9	22.9	22.9	69	14.3	0	2	248	0.00	29.969 
23:25	22.9	22.9	22.9	69	14.3	1	2	248	0.00	29.969 
23:30	22.7	22.7	22.7	68	13.8	1	3	315	0.00	29.964 
23:35	22.7	22.7	22.7	69	14.1	1	2	292	0.00	29.964 
23:40	22.5	22.5	22.5	69	13.9	0	2	292	0.00	29.964 
23:45	22.5	22.5	22.5	69	13.9	1	3	292	0.00	29.960 
23:50	22.4	22.4	22.4	69	13.8	1	3	292	0.00	29.960 
23:55	22.2	22.2	22.2	69	13.6	0	2	315	0.00	29.960 

CoCoRaHS
IN-AL-39
A2 Web Hosting
Creative Commons License
GoDaddy
search engine by freefind advanced

loaded 2018-11-15 15:36:54 • last modified 2010-11-18 10:43:29
Privacy PolicyDisclaimer
• wx.awcolley.com is powered by PmWiki v.2002016 •
• all content (unless otherwise noted) © 2018 A W Colley